Terminal Aerodrome Forecast
Issued by NWS St Louis, MO

Home | Current Version | Previous Version | Text Only | Print | Product List | Glossary On
Versions: 1 2 3 4 5 6 7 8 9 10 11 12 13 14 15 16 17 18 19 20 21 22 23 24 25 26 27 28 29 30 31 32 33
503
FTUS43 KLSX 270738 AAB
TAFSTL
TAF AMD
KSTL 270738Z 2708/2812 25004KT P6SM SCT025 BKN035
      TEMPO 2708/2711 BKN025
     FM271100 VRB03KT 5SM BR BKN050
     FM271300 02004KT P6SM SCT040
     FM271500 13007KT P6SM BKN040
     FM280000 14007KT P6SM BKN040
      TEMPO 2801/2804 VRB35KT 2SM TSRA BKN035CB=

USA.gov is the U.S. government's official web portal to all federal, state and local government web resources and services.